Time;durP1;ratioP1;P1;durP2;ratioP2;P2;SDS_P1;SDS_P2;PMS_P1;PMS_P2;Temp;Humidity;BMP_temperature;BMP_pressure;BME280_temperature;BME280_humidity;BME280_pressure;Samples;Min_cycle;Max_cycle;Signal;HPM_P1;HPM_P2
2023/08/12 00:00:57;;;;;;;;;;;21.70;56.80;;;;;;1580465;74;1446;-56
2023/08/12 00:02:59;;;;;;;;;;;21.80;56.80;;;;;;1577576;74;1968;-55
2023/08/12 00:05:01;;;;;;;;;;;21.70;56.80;;;;;;1590639;74;723;-56
2023/08/12 00:07:03;;;;;;;;;;;21.80;56.80;;;;;;1592542;74;818;-56
2023/08/12 00:09:05;;;;;;;;;;;21.80;56.80;;;;;;1586413;74;1129;-55
2023/08/12 00:11:07;;;;;;;;;;;21.70;56.80;;;;;;1579784;74;683;-57
2023/08/12 00:13:09;;;;;;;;;;;21.70;56.80;;;;;;1576782;74;721;-58
2023/08/12 00:15:11;;;;;;;;;;;21.80;56.80;;;;;;1586131;74;1495;-57
2023/08/12 00:17:13;;;;;;;;;;;21.70;56.80;;;;;;1579817;74;715;-57
2023/08/12 00:19:14;;;;;;;;;;;21.80;56.80;;;;;;1580615;74;1114;-56
2023/08/12 00:21:16;;;;;;;;;;;21.70;56.80;;;;;;1588815;74;785;-57
2023/08/12 00:23:18;;;;;;;;;;;21.70;56.80;;;;;;1581807;74;1946;-55
2023/08/12 00:25:20;;;;;;;;;;;21.70;56.80;;;;;;1578609;74;704;-56
2023/08/12 00:27:22;;;;;;;;;;;21.70;56.90;;;;;;1589272;74;813;-56
2023/08/12 00:29:24;;;;;;;;;;;21.70;56.90;;;;;;1588242;74;1630;-56
2023/08/12 00:31:26;;;;;;;;;;;21.70;57.00;;;;;;1580001;74;798;-56
2023/08/12 00:33:28;;;;;;;;;;;21.70;57.00;;;;;;1583333;74;702;-57
2023/08/12 00:35:29;;;;;;;;;;;21.80;57.10;;;;;;1577896;74;662;-56
2023/08/12 00:37:31;;;;;;;;;;;21.70;57.00;;;;;;1584337;74;783;-56
2023/08/12 00:39:33;;;;;;;;;;;21.70;57.00;;;;;;1584011;74;1093;-58
2023/08/12 00:41:35;;;;;;;;;;;21.70;56.90;;;;;;1588046;74;747;-56
2023/08/12 00:43:37;;;;;;;;;;;21.70;56.80;;;;;;1578778;74;1958;-56
2023/08/12 00:45:39;;;;;;;;;;;21.70;56.80;;;;;;1576622;74;695;-57
2023/08/12 00:47:41;;;;;;;;;;;21.70;56.70;;;;;;1582130;74;942;-56
2023/08/12 00:49:45;;;;;;;;;;;21.70;56.60;;;;;;1575181;74;1185;-56
2023/08/12 00:51:46;;;;;;;;;;;21.60;56.50;;;;;;1577603;74;967;-56
2023/08/12 00:53:48;;;;;;;;;;;21.70;56.60;;;;;;1569740;74;679;-58
2023/08/12 00:55:50;;;;;;;;;;;21.70;56.70;;;;;;1581963;74;1330;-57
2023/08/12 00:57:52;;;;;;;;;;;21.70;56.60;;;;;;1581359;74;769;-56
2023/08/12 00:59:54;;;;;;;;;;;21.60;56.60;;;;;;1580367;74;1153;-56
2023/08/12 01:01:56;;;;;;;;;;;21.60;56.50;;;;;;1584653;74;675;-57
2023/08/12 01:03:57;;;;;;;;;;;21.60;56.50;;;;;;1586214;74;1921;-56
2023/08/12 01:05:59;;;;;;;;;;;21.60;56.40;;;;;;1583301;74;722;-56
2023/08/12 01:08:01;;;;;;;;;;;21.70;56.70;;;;;;1583455;74;785;-57
2023/08/12 01:10:03;;;;;;;;;;;21.70;56.60;;;;;;1584058;74;1513;-55
2023/08/12 01:12:07;;;;;;;;;;;21.60;56.50;;;;;;1580663;74;738;-57
2023/08/12 01:14:13;;;;;;;;;;;21.60;56.50;;;;;;1581844;74;711;-57
2023/08/12 01:16:16;;;;;;;;;;;21.60;56.50;;;;;;1575859;74;751;-57
2023/08/12 01:18:17;;;;;;;;;;;21.60;56.30;;;;;;1588003;74;711;-57
2023/08/12 01:20:26;;;;;;;;;;;21.60;56.40;;;;;;1578317;74;1099;-58
2023/08/12 01:22:28;;;;;;;;;;;21.70;56.40;;;;;;1588171;74;1107;-56
2023/08/12 01:24:43;;;;;;;;;;;21.70;56.40;;;;;;1590003;74;1930;-56
2023/08/12 01:26:45;;;;;;;;;;;21.70;56.30;;;;;;1584305;74;701;-57
2023/08/12 01:28:47;;;;;;;;;;;21.70;56.30;;;;;;1581918;74;1092;-57
2023/08/12 01:30:54;;;;;;;;;;;21.60;56.30;;;;;;1582068;74;671;-57
2023/08/12 01:33:04;;;;;;;;;;;21.60;56.30;;;;;;1579076;74;913;-56
2023/08/12 01:35:13;;;;;;;;;;;21.60;56.30;;;;;;1582098;74;767;-55
2023/08/12 01:37:17;;;;;;;;;;;21.60;56.30;;;;;;1583014;74;1972;-56
2023/08/12 01:39:19;;;;;;;;;;;21.60;56.30;;;;;;1589803;74;1609;-57
2023/08/12 01:41:21;;;;;;;;;;;21.60;56.30;;;;;;1573792;74;785;-56
2023/08/12 01:43:23;;;;;;;;;;;21.60;56.30;;;;;;1593469;74;1919;-56
2023/08/12 01:45:25;;;;;;;;;;;21.60;56.30;;;;;;1590967;74;812;-56
2023/08/12 01:47:27;;;;;;;;;;;21.60;56.20;;;;;;1592759;74;746;-56
2023/08/12 01:49:28;;;;;;;;;;;21.50;56.10;;;;;;1575119;74;1149;-58
2023/08/12 01:51:30;;;;;;;;;;;21.60;56.20;;;;;;1593157;74;727;-56
2023/08/12 01:53:32;;;;;;;;;;;21.60;56.10;;;;;;1583850;74;1394;-57
2023/08/12 01:55:34;;;;;;;;;;;21.60;56.10;;;;;;1574882;74;678;-57
2023/08/12 01:57:36;;;;;;;;;;;21.60;56.20;;;;;;1579398;74;772;-57
2023/08/12 01:59:38;;;;;;;;;;;21.60;56.20;;;;;;1578690;74;1164;-55
2023/08/12 02:01:40;;;;;;;;;;;21.50;56.40;;;;;;1586698;74;791;-56
2023/08/12 02:03:42;;;;;;;;;;;21.50;56.40;;;;;;1576322;74;1941;-55
2023/08/12 02:05:44;;;;;;;;;;;21.50;56.40;;;;;;1577108;74;750;-55
2023/08/12 02:07:46;;;;;;;;;;;21.50;56.30;;;;;;1588551;74;1323;-57
2023/08/12 02:09:48;;;;;;;;;;;21.60;56.30;;;;;;1585725;74;1263;-55
2023/08/12 02:11:50;;;;;;;;;;;21.50;56.30;;;;;;1590129;74;769;-56
2023/08/12 02:13:52;;;;;;;;;;;21.60;56.30;;;;;;1575334;74;751;-57
2023/08/12 02:15:53;;;;;;;;;;;21.50;56.30;;;;;;1589943;74;657;-57
2023/08/12 02:17:55;;;;;;;;;;;21.60;56.30;;;;;;1583177;74;801;-57
2023/08/12 02:19:57;;;;;;;;;;;21.50;56.30;;;;;;1578191;74;1135;-56
2023/08/12 02:21:59;;;;;;;;;;;21.50;56.30;;;;;;1583129;74;1477;-56
2023/08/12 02:24:01;;;;;;;;;;;21.50;56.40;;;;;;1575052;74;1931;-56
2023/08/12 02:26:03;;;;;;;;;;;21.50;56.30;;;;;;1586693;74;856;-56
2023/08/12 02:28:05;;;;;;;;;;;21.50;56.30;;;;;;1584013;74;676;-57
2023/08/12 02:30:07;;;;;;;;;;;21.50;56.30;;;;;;1587768;74;1156;-57
2023/08/12 02:32:09;;;;;;;;;;;21.50;56.20;;;;;;1591694;74;763;-57
2023/08/12 02:34:11;;;;;;;;;;;21.50;56.30;;;;;;1589349;74;829;-58
2023/08/12 02:36:13;;;;;;;;;;;21.50;56.30;;;;;;1582732;74;1680;-58
2023/08/12 02:38:15;;;;;;;;;;;21.50;56.20;;;;;;1586240;74;715;-56
2023/08/12 02:40:17;;;;;;;;;;;21.50;56.20;;;;;;1586519;74;1109;-56
2023/08/12 02:42:19;;;;;;;;;;;21.50;56.20;;;;;;1581941;74;673;-56
2023/08/12 02:44:21;;;;;;;;;;;21.50;56.20;;;;;;1588231;74;1938;-56
2023/08/12 02:46:24;;;;;;;;;;;21.50;56.30;;;;;;1591216;74;700;-57
2023/08/12 02:48:26;;;;;;;;;;;21.50;56.40;;;;;;1577501;74;2066;-56
2023/08/12 02:50:28;;;;;;;;;;;21.50;56.40;;;;;;1590263;74;725;-56
2023/08/12 02:52:30;;;;;;;;;;;21.50;56.30;;;;;;1579217;74;707;-57
2023/08/12 02:54:32;;;;;;;;;;;21.50;56.40;;;;;;1586506;74;858;-55
2023/08/12 02:56:33;;;;;;;;;;;21.40;56.30;;;;;;1587128;74;750;-57
2023/08/12 02:58:37;;;;;;;;;;;21.50;56.40;;;;;;1597193;74;1160;-58
2023/08/12 03:00:40;;;;;;;;;;;21.40;56.10;;;;;;1585337;74;724;-56
2023/08/12 03:02:43;;;;;;;;;;;21.40;56.20;;;;;;1585387;74;1545;-56
2023/08/12 03:04:45;;;;;;;;;;;21.40;56.30;;;;;;1589545;74;1945;-56
2023/08/12 03:06:46;;;;;;;;;;;21.50;56.40;;;;;;1589351;74;789;-57
2023/08/12 03:08:48;;;;;;;;;;;21.50;56.40;;;;;;1577748;74;1140;-58
2023/08/12 03:10:50;;;;;;;;;;;21.40;56.20;;;;;;1590987;74;770;-57
2023/08/12 03:12:53;;;;;;;;;;;21.40;56.30;;;;;;1591531;74;782;-57
2023/08/12 03:14:55;;;;;;;;;;;21.40;56.30;;;;;;1585806;74;709;-57
2023/08/12 03:16:57;;;;;;;;;;;21.40;56.40;;;;;;1584359;74;1538;-57
2023/08/12 03:18:58;;;;;;;;;;;21.40;56.50;;;;;;1583282;74;1168;-57
2023/08/12 03:21:00;;;;;;;;;;;21.40;56.40;;;;;;1587569;74;741;-56
2023/08/12 03:23:02;;;;;;;;;;;21.40;56.50;;;;;;1573318;74;792;-57
2023/08/12 03:25:05;;;;;;;;;;;21.50;56.60;;;;;;1588533;74;1904;-55
2023/08/12 03:27:07;;;;;;;;;;;21.50;56.70;;;;;;1590262;74;867;-56
2023/08/12 03:29:08;;;;;;;;;;;21.40;56.60;;;;;;1575399;74;1147;-56
2023/08/12 03:31:10;;;;;;;;;;;21.50;57.10;;;;;;1582777;74;1447;-56
2023/08/12 03:33:14;;;;;;;;;;;21.40;56.90;;;;;;1582332;74;701;-56
2023/08/12 03:35:16;;;;;;;;;;;21.40;56.80;;;;;;1582178;74;705;-57
2023/08/12 03:37:18;;;;;;;;;;;21.40;56.80;;;;;;1588335;74;772;-57
2023/08/12 03:39:19;;;;;;;;;;;21.50;56.90;;;;;;1571662;74;1161;-55
2023/08/12 03:41:21;;;;;;;;;;;21.50;57.10;;;;;;1579878;74;799;-57
2023/08/12 03:43:23;;;;;;;;;;;21.40;56.90;;;;;;1577537;74;735;-57
2023/08/12 03:45:25;;;;;;;;;;;21.40;56.90;;;;;;1576914;74;1942;-57
2023/08/12 03:47:27;;;;;;;;;;;21.40;56.90;;;;;;1580315;74;785;-57
2023/08/12 03:49:29;;;;;;;;;;;21.40;56.90;;;;;;1583463;74;1124;-56
2023/08/12 03:51:31;;;;;;;;;;;21.40;56.90;;;;;;1580746;74;773;-57
2023/08/12 03:53:33;;;;;;;;;;;21.50;57.00;;;;;;1580463;74;702;-56
2023/08/12 03:55:34;;;;;;;;;;;21.40;56.90;;;;;;1575633;74;768;-56
2023/08/12 03:57:36;;;;;;;;;;;21.40;56.80;;;;;;1585491;74;805;-56
2023/08/12 03:59:38;;;;;;;;;;;21.40;56.80;;;;;;1582177;74;1576;-57
2023/08/12 04:01:40;;;;;;;;;;;21.40;56.80;;;;;;1587545;74;721;-57
2023/08/12 04:03:42;;;;;;;;;;;21.40;56.80;;;;;;1586990;74;929;-57
2023/08/12 04:05:51;;;;;;;;;;;21.40;56.80;;;;;;1584695;74;1930;-57
2023/08/12 04:07:53;;;;;;;;;;;21.40;56.90;;;;;;1585716;74;652;-56
2023/08/12 04:09:55;;;;;;;;;;;21.40;56.80;;;;;;1580026;74;1131;-57
2023/08/12 04:11:57;;;;;;;;;;;21.40;56.90;;;;;;1593045;74;784;-57
2023/08/12 04:13:59;;;;;;;;;;;21.40;56.90;;;;;;1583987;74;1528;-57
2023/08/12 04:16:01;;;;;;;;;;;21.40;56.90;;;;;;1579946;74;795;-57
2023/08/12 04:18:03;;;;;;;;;;;21.40;56.80;;;;;;1576722;74;1038;-56
2023/08/12 04:20:06;;;;;;;;;;;21.40;56.80;;;;;;1576079;74;1157;-57
2023/08/12 04:22:08;;;;;;;;;;;21.40;56.80;;;;;;1580489;74;661;-56
2023/08/12 04:24:10;;;;;;;;;;;21.40;56.80;;;;;;1582321;74;1945;-56
2023/08/12 04:26:12;;;;;;;;;;;21.40;56.80;;;;;;1584990;74;778;-58
2023/08/12 04:28:14;;;;;;;;;;;21.40;56.90;;;;;;1585893;74;1450;-56
2023/08/12 04:30:16;;;;;;;;;;;21.40;56.90;;;;;;1580866;74;1135;-56
2023/08/12 04:32:19;;;;;;;;;;;21.40;56.90;;;;;;1582934;74;693;-57
2023/08/12 04:34:20;;;;;;;;;;;21.40;56.80;;;;;;1581781;74;727;-57
2023/08/12 04:36:22;;;;;;;;;;;21.40;56.80;;;;;;1576558;74;800;-57
2023/08/12 04:38:24;;;;;;;;;;;21.40;56.90;;;;;;1589437;74;661;-57
2023/08/12 04:40:26;;;;;;;;;;;21.30;56.90;;;;;;1584148;74;1149;-56
2023/08/12 04:42:28;;;;;;;;;;;21.40;56.80;;;;;;1583095;74;1700;-57
2023/08/12 04:44:30;;;;;;;;;;;21.30;56.80;;;;;;1574434;74;1969;-56
2023/08/12 04:46:32;;;;;;;;;;;21.40;56.80;;;;;;1580881;74;727;-57
2023/08/12 04:48:34;;;;;;;;;;;21.30;56.90;;;;;;1585783;74;1111;-56
2023/08/12 04:50:36;;;;;;;;;;;21.40;57.00;;;;;;1588052;74;779;-57
2023/08/12 04:52:38;;;;;;;;;;;21.40;57.10;;;;;;1588149;74;749;-56
2023/08/12 04:54:39;;;;;;;;;;;21.40;57.00;;;;;;1573825;74;602;-57
2023/08/12 04:56:41;;;;;;;;;;;21.40;57.10;;;;;;1590046;74;1635;-56
2023/08/12 04:58:43;;;;;;;;;;;21.30;57.20;;;;;;1591526;74;1142;-56
2023/08/12 05:00:45;;;;;;;;;;;21.40;57.30;;;;;;1583255;74;689;-55
2023/08/12 05:02:47;;;;;;;;;;;21.40;57.50;;;;;;1594589;74;728;-56
2023/08/12 05:04:52;;;;;;;;;;;21.40;57.60;;;;;;1580631;74;1917;-57
2023/08/12 05:06:54;;;;;;;;;;;21.40;58.00;;;;;;1592200;74;708;-56
2023/08/12 05:08:56;;;;;;;;;;;21.30;58.40;;;;;;1574877;74;1183;-57
2023/08/12 05:10:58;;;;;;;;;;;21.30;58.40;;;;;;1592074;74;864;-57
2023/08/12 05:12:59;;;;;;;;;;;21.40;58.50;;;;;;1582303;74;733;-57
2023/08/12 05:15:02;;;;;;;;;;;21.40;58.50;;;;;;1586446;74;722;-57
2023/08/12 05:17:04;;;;;;;;;;;21.40;58.50;;;;;;1577290;74;784;-57
2023/08/12 05:19:06;;;;;;;;;;;21.40;58.40;;;;;;1579420;74;1136;-58
2023/08/12 05:21:08;;;;;;;;;;;21.40;58.60;;;;;;1595347;74;787;-57
2023/08/12 05:23:10;;;;;;;;;;;21.50;59.00;;;;;;1595375;74;747;-57
2023/08/12 05:25:12;;;;;;;;;;;21.50;59.20;;;;;;1581002;74;1933;-56
2023/08/12 05:27:14;;;;;;;;;;;21.50;59.40;;;;;;1591395;74;780;-56
2023/08/12 05:29:15;;;;;;;;;;;21.60;59.40;;;;;;1575502;74;1132;-58
2023/08/12 05:31:17;;;;;;;;;;;21.70;59.60;;;;;;1579679;74;814;-56
2023/08/12 05:33:19;;;;;;;;;;;21.70;59.40;;;;;;1589294;74;753;-57
2023/08/12 05:35:21;;;;;;;;;;;21.80;59.30;;;;;;1592729;74;796;-56
2023/08/12 05:37:23;;;;;;;;;;;21.90;59.50;;;;;;1576184;74;758;-56
2023/08/12 05:39:25;;;;;;;;;;;21.90;59.40;;;;;;1592421;74;1080;-56
2023/08/12 05:41:27;;;;;;;;;;;22.00;59.40;;;;;;1588970;74;714;-57
2023/08/12 05:43:29;;;;;;;;;;;22.00;59.20;;;;;;1587365;74;713;-56
2023/08/12 05:45:31;;;;;;;;;;;22.00;59.00;;;;;;1583580;74;1936;-57
2023/08/12 05:47:32;;;;;;;;;;;22.00;59.20;;;;;;1585593;74;797;-57
2023/08/12 05:49:34;;;;;;;;;;;22.00;59.30;;;;;;1591744;74;1170;-57
2023/08/12 05:51:38;;;;;;;;;;;22.00;59.40;;;;;;1585124;74;790;-57
2023/08/12 05:53:40;;;;;;;;;;;22.00;59.80;;;;;;1596272;74;819;-55
2023/08/12 05:55:42;;;;;;;;;;;22.00;59.60;;;;;;1579456;74;659;-56
2023/08/12 05:57:44;;;;;;;;;;;22.00;59.20;;;;;;1584306;74;721;-56
2023/08/12 05:59:46;;;;;;;;;;;22.10;59.00;;;;;;1592810;74;1115;-58
2023/08/12 06:01:47;;;;;;;;;;;22.10;59.00;;;;;;1590070;74;805;-56
2023/08/12 06:03:49;;;;;;;;;;;22.20;58.20;;;;;;1585872;74;785;-58
2023/08/12 06:05:51;;;;;;;;;;;22.30;57.90;;;;;;1576599;74;1931;-57
2023/08/12 06:07:53;;;;;;;;;;;22.30;57.70;;;;;;1580882;74;717;-57
2023/08/12 06:09:55;;;;;;;;;;;22.40;57.60;;;;;;1587377;74;1656;-57
2023/08/12 06:11:57;;;;;;;;;;;22.40;57.30;;;;;;1588876;74;733;-57
2023/08/12 06:13:59;;;;;;;;;;;22.40;57.10;;;;;;1587930;74;717;-56
2023/08/12 06:16:01;;;;;;;;;;;22.50;57.10;;;;;;1593246;74;811;-57
2023/08/12 06:18:03;;;;;;;;;;;22.50;56.60;;;;;;1586631;74;784;-56
2023/08/12 06:20:05;;;;;;;;;;;22.60;56.50;;;;;;1583605;74;1139;-56
2023/08/12 06:22:07;;;;;;;;;;;22.60;55.80;;;;;;1588999;74;727;-58
2023/08/12 06:24:09;;;;;;;;;;;22.60;56.20;;;;;;1583442;74;784;-57
2023/08/12 06:26:11;;;;;;;;;;;22.60;56.00;;;;;;1591207;74;1934;-57
2023/08/12 06:28:12;;;;;;;;;;;22.60;56.10;;;;;;1579714;74;847;-57
2023/08/12 06:30:14;;;;;;;;;;;22.60;55.50;;;;;;1586845;74;1105;-57
2023/08/12 06:32:16;;;;;;;;;;;22.70;55.70;;;;;;1583554;74;702;-56
2023/08/12 06:34:18;;;;;;;;;;;22.70;55.50;;;;;;1578477;74;800;-58
2023/08/12 06:36:20;;;;;;;;;;;22.70;54.90;;;;;;1579427;74;712;-57
2023/08/12 06:38:22;;;;;;;;;;;22.70;55.70;;;;;;1582377;74;726;-56
2023/08/12 06:40:24;;;;;;;;;;;22.70;55.70;;;;;;1579453;74;1079;-56
2023/08/12 06:42:26;;;;;;;;;;;22.70;54.70;;;;;;1593433;74;783;-57
2023/08/12 06:44:28;;;;;;;;;;;22.70;55.50;;;;;;1593480;74;745;-55
2023/08/12 06:46:30;;;;;;;;;;;22.70;55.20;;;;;;1593841;74;1938;-57
2023/08/12 06:48:32;;;;;;;;;;;22.70;55.80;;;;;;1592726;74;1156;-56
2023/08/12 06:50:34;;;;;;;;;;;22.60;55.80;;;;;;1593010;74;749;-58
2023/08/12 06:52:36;;;;;;;;;;;22.60;56.00;;;;;;1585940;74;663;-55
2023/08/12 06:54:38;;;;;;;;;;;22.60;56.00;;;;;;1592893;74;841;-56
2023/08/12 06:56:40;;;;;;;;;;;22.50;56.50;;;;;;1587450;74;751;-56
2023/08/12 06:58:42;;;;;;;;;;;22.60;55.50;;;;;;1585752;74;1153;-56
2023/08/12 07:00:44;;;;;;;;;;;22.60;55.70;;;;;;1579883;74;727;-58
2023/08/12 07:02:46;;;;;;;;;;;22.60;55.80;;;;;;1590092;74;795;-57
2023/08/12 07:04:48;;;;;;;;;;;22.60;56.30;;;;;;1585591;74;701;-57
2023/08/12 07:06:50;;;;;;;;;;;22.60;55.30;;;;;;1579633;74;1935;-58
2023/08/12 07:08:51;;;;;;;;;;;22.60;55.70;;;;;;1586908;74;1174;-56
2023/08/12 07:10:53;;;;;;;;;;;22.50;55.40;;;;;;1595401;74;677;-56
2023/08/12 07:12:55;;;;;;;;;;;22.50;56.30;;;;;;1593838;74;742;-56
2023/08/12 07:14:57;;;;;;;;;;;22.50;56.70;;;;;;1576707;74;728;-57
2023/08/12 07:16:59;;;;;;;;;;;22.50;56.30;;;;;;1577485;74;707;-57
2023/08/12 07:19:01;;;;;;;;;;;22.50;57.20;;;;;;1582162;74;1112;-57
2023/08/12 07:21:03;;;;;;;;;;;22.50;56.80;;;;;;1579056;74;722;-56
2023/08/12 07:23:05;;;;;;;;;;;22.40;57.30;;;;;;1578629;74;757;-57
2023/08/12 07:25:07;;;;;;;;;;;22.50;57.00;;;;;;1588289;74;1946;-56
2023/08/12 07:27:09;;;;;;;;;;;22.50;57.40;;;;;;1585689;74;722;-58
2023/08/12 07:29:11;;;;;;;;;;;22.50;56.30;;;;;;1593701;74;1156;-57
2023/08/12 07:31:13;;;;;;;;;;;22.40;57.30;;;;;;1591241;74;675;-56
2023/08/12 07:33:15;;;;;;;;;;;22.40;57.50;;;;;;1575056;74;788;-56
2023/08/12 07:35:16;;;;;;;;;;;22.40;57.70;;;;;;1586749;74;767;-57
2023/08/12 07:37:18;;;;;;;;;;;22.40;57.20;;;;;;1575395;74;788;-57
2023/08/12 07:39:21;;;;;;;;;;;22.40;57.60;;;;;;1579622;74;1135;-56
2023/08/12 07:41:23;;;;;;;;;;;22.50;56.70;;;;;;1580366;74;967;-58
2023/08/12 07:43:25;;;;;;;;;;;22.40;57.80;;;;;;1580595;74;776;-57
2023/08/12 07:45:27;;;;;;;;;;;22.40;57.70;;;;;;1574456;74;1932;-57
2023/08/12 07:47:29;;;;;;;;;;;22.30;57.90;;;;;;1575140;74;1050;-56
2023/08/12 07:49:31;;;;;;;;;;;22.40;57.70;;;;;;1584259;74;1080;-55
2023/08/12 07:51:33;;;;;;;;;;;22.40;58.20;;;;;;1583207;74;786;-57
2023/08/12 07:53:34;;;;;;;;;;;22.40;58.40;;;;;;1584999;74;691;-57
2023/08/12 07:55:36;;;;;;;;;;;22.40;58.30;;;;;;1587214;74;723;-57
2023/08/12 07:57:38;;;;;;;;;;;22.40;58.40;;;;;;1585560;74;781;-57
2023/08/12 07:59:40;;;;;;;;;;;22.30;58.40;;;;;;1581322;74;1097;-57
2023/08/12 08:01:42;;;;;;;;;;;22.40;58.80;;;;;;1585789;74;1517;-56
2023/08/12 08:03:44;;;;;;;;;;;22.30;59.00;;;;;;1581378;74;717;-57
2023/08/12 08:05:46;;;;;;;;;;;22.40;58.40;;;;;;1585944;74;1929;-56
2023/08/12 08:07:48;;;;;;;;;;;22.40;58.40;;;;;;1587375;74;718;-57
2023/08/12 08:09:51;;;;;;;;;;;22.30;58.90;;;;;;1586073;74;1143;-56
2023/08/12 08:11:53;;;;;;;;;;;22.40;58.90;;;;;;1583257;74;705;-58
2023/08/12 08:13:55;;;;;;;;;;;22.40;58.90;;;;;;1577780;74;740;-57
2023/08/12 08:15:57;;;;;;;;;;;22.30;58.50;;;;;;1579486;74;848;-57
2023/08/12 08:17:59;;;;;;;;;;;22.40;58.30;;;;;;1596314;74;660;-57
2023/08/12 08:20:00;;;;;;;;;;;22.40;57.80;;;;;;1580361;74;1103;-57
2023/08/12 08:22:03;;;;;;;;;;;22.40;58.50;;;;;;1583200;74;809;-55
2023/08/12 08:24:05;;;;;;;;;;;22.40;58.90;;;;;;1587839;74;915;-56
2023/08/12 08:26:06;;;;;;;;;;;22.40;58.90;;;;;;1574045;74;1941;-54
2023/08/12 08:28:08;;;;;;;;;;;22.40;58.40;;;;;;1592331;74;763;-57
2023/08/12 08:30:11;;;;;;;;;;;22.30;58.90;;;;;;1588052;74;1103;-57
2023/08/12 08:32:12;;;;;;;;;;;22.30;59.00;;;;;;1593145;74;880;-58
2023/08/12 08:34:15;;;;;;;;;;;22.40;59.10;;;;;;1579546;74;772;-56
2023/08/12 08:36:18;;;;;;;;;;;22.40;59.20;;;;;;1574553;74;732;-58
2023/08/12 08:38:20;;;;;;;;;;;22.30;59.10;;;;;;1592498;74;771;-55
2023/08/12 08:40:21;;;;;;;;;;;22.30;58.90;;;;;;1584084;74;1124;-54
2023/08/12 08:42:24;;;;;;;;;;;22.30;59.00;;;;;;1582584;74;732;-57
2023/08/12 08:44:27;;;;;;;;;;;22.30;58.90;;;;;;1576829;74;709;-55
2023/08/12 08:46:29;;;;;;;;;;;22.40;58.40;;;;;;1586993;74;1918;-57
2023/08/12 08:48:31;;;;;;;;;;;22.40;57.80;;;;;;1589644;74;1072;-56
2023/08/12 08:50:33;;;;;;;;;;;22.30;58.80;;;;;;1583062;74;758;-55
2023/08/12 08:52:37;;;;;;;;;;;22.30;58.40;;;;;;1582175;74;714;-55
2023/08/12 08:54:39;;;;;;;;;;;22.30;58.00;;;;;;1586014;74;766;-55
2023/08/12 08:56:41;;;;;;;;;;;22.30;58.40;;;;;;1581495;74;745;-56
2023/08/12 08:58:43;;;;;;;;;;;22.30;58.30;;;;;;1592236;74;1441;-57
2023/08/12 09:00:45;;;;;;;;;;;22.40;59.10;;;;;;1581879;74;755;-55
2023/08/12 09:02:48;;;;;;;;;;;22.30;59.00;;;;;;1580284;74;770;-54
2023/08/12 09:04:50;;;;;;;;;;;22.30;58.40;;;;;;1587086;74;811;-56
2023/08/12 09:06:53;;;;;;;;;;;22.20;59.20;;;;;;1594896;74;1925;-54
2023/08/12 09:08:55;;;;;;;;;;;22.40;59.20;;;;;;1578191;74;1197;-57
2023/08/12 09:10:57;;;;;;;;;;;22.30;57.70;;;;;;1593185;74;786;-55
2023/08/12 09:12:59;;;;;;;;;;;22.30;58.40;;;;;;1590294;74;589;-58
2023/08/12 09:15:01;;;;;;;;;;;22.40;57.60;;;;;;1586890;74;995;-57
2023/08/12 09:17:03;;;;;;;;;;;22.30;58.20;;;;;;1588533;74;716;-56
2023/08/12 09:19:05;;;;;;;;;;;22.40;58.30;;;;;;1577967;74;1201;-57
2023/08/12 09:21:07;;;;;;;;;;;22.40;58.90;;;;;;1589000;74;817;-57
2023/08/12 09:23:10;;;;;;;;;;;22.40;57.80;;;;;;1591409;74;644;-58
2023/08/12 09:25:12;;;;;;;;;;;22.40;58.80;;;;;;1581514;74;764;-57
2023/08/12 09:27:16;;;;;;;;;;;22.40;58.30;;;;;;1588503;74;1920;-56
2023/08/12 09:29:18;;;;;;;;;;;22.40;59.00;;;;;;1579782;74;1672;-56
2023/08/12 09:31:26;;;;;;;;;;;22.40;58.30;;;;;;1583805;74;719;-56
2023/08/12 09:33:28;;;;;;;;;;;22.40;59.00;;;;;;1589717;74;778;-56
2023/08/12 09:35:40;;;;;;;;;;;22.40;58.80;;;;;;1587359;74;796;-57
2023/08/12 09:37:42;;;;;;;;;;;22.40;58.40;;;;;;1584447;74;746;-56
2023/08/12 09:39:44;;;;;;;;;;;22.40;57.60;;;;;;1589593;74;1139;-55
2023/08/12 09:41:46;;;;;;;;;;;22.40;57.40;;;;;;1584021;74;782;-56
2023/08/12 09:43:48;;;;;;;;;;;22.40;57.80;;;;;;1589751;74;668;-54
2023/08/12 09:45:50;;;;;;;;;;;22.40;58.30;;;;;;1578433;74;744;-56
2023/08/12 09:47:52;;;;;;;;;;;22.40;58.50;;;;;;1576240;74;1937;-57
2023/08/12 09:49:55;;;;;;;;;;;22.40;58.00;;;;;;1594874;74;1123;-57
2023/08/12 09:51:57;;;;;;;;;;;22.40;58.30;;;;;;1583556;74;733;-54
2023/08/12 09:53:59;;;;;;;;;;;22.40;58.10;;;;;;1593736;74;1448;-55
2023/08/12 09:56:02;;;;;;;;;;;22.40;57.70;;;;;;1574285;74;829;-56
2023/08/12 09:58:04;;;;;;;;;;;22.40;57.90;;;;;;1590211;74;1928;-56
2023/08/12 10:00:12;;;;;;;;;;;22.50;58.00;;;;;;1580108;74;1104;-56
2023/08/12 10:02:10;;;;;;;;;;;22.40;58.20;;;;;;1581416;74;1652;-58
2023/08/12 10:04:13;;;;;;;;;;;22.40;58.40;;;;;;1589760;74;757;-57
2023/08/12 10:06:15;;;;;;;;;;;22.40;57.70;;;;;;1580278;74;1906;-55
2023/08/12 10:08:16;;;;;;;;;;;22.50;58.20;;;;;;1585328;74;772;-57
2023/08/12 10:10:18;;;;;;;;;;;22.40;58.10;;;;;;1589582;74;1124;-56
2023/08/12 10:12:20;;;;;;;;;;;22.50;58.60;;;;;;1595709;74;706;-56
2023/08/12 10:14:22;;;;;;;;;;;22.50;59.10;;;;;;1587121;74;722;-58
2023/08/12 10:16:24;;;;;;;;;;;22.50;58.60;;;;;;1589066;74;739;-56
2023/08/12 10:18:26;;;;;;;;;;;22.50;59.00;;;;;;1583603;74;695;-55
2023/08/12 10:20:28;;;;;;;;;;;22.50;59.00;;;;;;1584643;74;1144;-58
2023/08/12 10:22:31;;;;;;;;;;;22.40;58.20;;;;;;1587266;74;756;-58
2023/08/12 10:24:33;;;;;;;;;;;22.40;58.00;;;;;;1587090;74;1552;-54
2023/08/12 10:26:35;;;;;;;;;;;22.50;58.40;;;;;;1579367;74;1938;-55
2023/08/12 10:28:37;;;;;;;;;;;22.50;58.20;;;;;;1590989;74;1131;-53
2023/08/12 10:30:41;;;;;;;;;;;22.50;58.10;;;;;;1580492;74;765;-56
2023/08/12 10:32:43;;;;;;;;;;;22.50;58.10;;;;;;1589797;74;1554;-57
2023/08/12 10:34:45;;;;;;;;;;;22.50;58.30;;;;;;1580113;74;725;-57
2023/08/12 10:36:47;;;;;;;;;;;22.50;58.30;;;;;;1586083;74;771;-56
2023/08/12 10:38:49;;;;;;;;;;;22.50;58.40;;;;;;1586811;74;1087;-56
2023/08/12 10:40:51;;;;;;;;;;;22.50;58.30;;;;;;1594175;74;711;-54
2023/08/12 10:42:53;;;;;;;;;;;22.50;58.10;;;;;;1590078;74;686;-58
2023/08/12 10:44:56;;;;;;;;;;;22.50;58.10;;;;;;1581627;74;755;-56
2023/08/12 10:46:58;;;;;;;;;;;22.50;58.20;;;;;;1594692;74;1944;-57
2023/08/12 10:49:02;;;;;;;;;;;22.50;58.30;;;;;;1587417;74;1140;-57
2023/08/12 10:51:04;;;;;;;;;;;22.50;58.10;;;;;;1578845;74;1765;-57
2023/08/12 10:53:27;;;;;;;;;;;22.50;58.40;;;;;;1584065;74;805;-56
2023/08/12 10:55:28;;;;;;;;;;;22.50;58.50;;;;;;1597596;74;1696;-57
2023/08/12 10:57:39;;;;;;;;;;;22.50;58.60;;;;;;1591841;74;686;-56
2023/08/12 10:59:49;;;;;;;;;;;22.50;58.50;;;;;;1592709;74;1151;-56
2023/08/12 11:01:50;;;;;;;;;;;22.60;58.60;;;;;;1589718;74;715;-56
2023/08/12 11:03:53;;;;;;;;;;;22.50;58.60;;;;;;1594756;74;1199;-55
2023/08/12 11:05:58;;;;;;;;;;;22.50;58.50;;;;;;1584394;74;1035;-56
2023/08/12 11:08:05;;;;;;;;;;;22.50;59.10;;;;;;1581340;74;1895;-56
2023/08/12 11:10:16;;;;;;;;;;;22.50;59.10;;;;;;1574064;74;1169;-56
2023/08/12 11:12:18;;;;;;;;;;;22.50;59.20;;;;;;1589444;74;780;-56
2023/08/12 11:14:22;;;;;;;;;;;22.50;59.30;;;;;;1595789;74;688;-56
2023/08/12 11:16:36;;;;;;;;;;;22.50;59.10;;;;;;1587337;74;796;-55
2023/08/12 11:18:38;;;;;;;;;;;22.50;59.20;;;;;;1588122;74;1164;-57
2023/08/12 11:20:40;;;;;;;;;;;22.60;59.10;;;;;;1548993;75;1330;-57
2023/08/12 11:22:43;;;;;;;;;;;22.60;59.10;;;;;;1577346;74;769;-57
2023/08/12 11:24:45;;;;;;;;;;;22.50;59.20;;;;;;1588274;74;732;-56
2023/08/12 11:26:46;;;;;;;;;;;22.50;59.40;;;;;;1594910;74;1925;-57
2023/08/12 11:28:48;;;;;;;;;;;22.50;59.30;;;;;;1578791;74;1121;-56
2023/08/12 11:30:50;;;;;;;;;;;22.50;59.40;;;;;;1591781;74;675;-56
2023/08/12 11:32:53;;;;;;;;;;;22.50;59.40;;;;;;1585311;74;740;-55
2023/08/12 11:34:55;;;;;;;;;;;22.50;59.40;;;;;;1585397;74;771;-54
2023/08/12 11:36:57;;;;;;;;;;;22.00;59.00;;;;;;1582303;74;649;-56
2023/08/12 11:38:59;;;;;;;;;;;22.50;59.40;;;;;;1584505;74;1158;-55
2023/08/12 11:41:02;;;;;;;;;;;22.50;59.40;;;;;;1584073;74;701;-55
2023/08/12 11:43:04;;;;;;;;;;;22.50;59.30;;;;;;1582050;74;788;-58
2023/08/12 11:45:07;;;;;;;;;;;22.50;59.30;;;;;;1590433;74;764;-57
2023/08/12 11:47:08;;;;;;;;;;;22.50;59.30;;;;;;1581448;74;1941;-58
2023/08/12 11:49:10;;;;;;;;;;;22.50;59.50;;;;;;1580756;74;1139;-57
2023/08/12 11:51:12;;;;;;;;;;;22.50;59.50;;;;;;1573215;74;713;-56
2023/08/12 11:53:14;;;;;;;;;;;22.60;59.40;;;;;;1592503;74;682;-56
2023/08/12 11:55:16;;;;;;;;;;;22.50;59.40;;;;;;1590153;74;704;-56
2023/08/12 11:57:18;;;;;;;;;;;22.50;59.60;;;;;;1581899;74;799;-55
2023/08/12 11:59:22;;;;;;;;;;;22.50;59.40;;;;;;1578684;74;1163;-56
2023/08/12 12:01:24;;;;;;;;;;;22.50;59.50;;;;;;1597518;74;740;-55
2023/08/12 12:03:27;;;;;;;;;;;22.50;59.50;;;;;;1583956;74;857;-57
2023/08/12 12:05:34;;;;;;;;;;;22.50;59.40;;;;;;1586235;74;783;-57
2023/08/12 12:07:36;;;;;;;;;;;22.50;59.40;;;;;;1585877;74;1933;-56
2023/08/12 12:09:38;;;;;;;;;;;22.50;59.40;;;;;;1571069;75;1157;-57